Villas del Rio Verde, Puerto Rico
Current Conditions -  °F | °C
As of 9:56 AM on Wednesday 26 Nov 2014 (Local Time) from TJSJ Reporting Station
Scattered Clouds Scattered Clouds  
Wind Chill: 28°   Ceiling: Unl
Heat Index: 31°   Visibility: 10mi
Dew Point: 24°   Wind: 15mph
Humidity: 79%   Direction: 70°ENE
Pressure: 30.06"   Gusts: NA
Location:  18.2361°N, 66.0369°W
Report Text: TJSJ 261356Z 07013KT 10SM FEW026 SCT035 28/24 A3006 RMK AO2 SLP178 T02780239
Loading
Personal Weather Stations






























Interactive Weather Map New forecast layout! Learn more

10-Day Weather Forecast

Advertisements
Track Severe Weather on mobile